sensor_id;sensor_type;location;lat;lon;timestamp;pressure;altitude;pressure_sealevel;temperature;humidity
35892;BME280;21993;42.672;23.296;2023-04-06T00:00:48;94472.34;;;3.42;57.48
35892;BME280;21993;42.672;23.296;2023-04-06T00:03:14;94472.31;;;3.29;57.35
35892;BME280;21993;42.672;23.296;2023-04-06T00:05:40;94457.56;;;3.30;57.41
35892;BME280;21993;42.672;23.296;2023-04-06T00:08:06;94460.53;;;3.24;57.48
35892;BME280;21993;42.672;23.296;2023-04-06T00:10:31;94457.50;;;3.17;57.90
35892;BME280;21993;42.672;23.296;2023-04-06T00:12:58;94442.63;;;3.33;57.42
35892;BME280;21993;42.672;23.296;2023-04-06T00:15:24;94440.47;;;3.40;57.02
35892;BME280;21993;42.672;23.296;2023-04-06T00:17:49;94449.63;;;3.46;57.06
35892;BME280;21993;42.672;23.296;2023-04-06T00:20:15;94443.75;;;3.02;57.43
35892;BME280;21993;42.672;23.296;2023-04-06T00:22:41;94432.81;;;3.12;57.85
35892;BME280;21993;42.672;23.296;2023-04-06T00:25:07;94440.72;;;3.23;58.04
35892;BME280;21993;42.672;23.296;2023-04-06T00:27:32;94433.88;;;3.22;58.22
35892;BME280;21993;42.672;23.296;2023-04-06T00:29:58;94433.56;;;3.26;57.22
35892;BME280;21993;42.672;23.296;2023-04-06T00:32:23;94430.47;;;3.21;58.23
35892;BME280;21993;42.672;23.296;2023-04-06T00:34:49;94438.47;;;3.31;57.95
35892;BME280;21993;42.672;23.296;2023-04-06T00:37:14;94440.13;;;3.32;58.09
35892;BME280;21993;42.672;23.296;2023-04-06T00:39:40;94427.28;;;3.30;57.76
35892;BME280;21993;42.672;23.296;2023-04-06T00:42:11;94430.59;;;3.32;57.60
35892;BME280;21993;42.672;23.296;2023-04-06T00:44:43;94434.06;;;3.19;57.78
35892;BME280;21993;42.672;23.296;2023-04-06T00:47:13;94426.00;;;3.23;57.53
35892;BME280;21993;42.672;23.296;2023-04-06T00:49:39;94426.13;;;2.95;58.18
35892;BME280;21993;42.672;23.296;2023-04-06T00:52:04;94419.41;;;3.05;58.14
35892;BME280;21993;42.672;23.296;2023-04-06T00:54:30;94428.41;;;2.99;58.19
35892;BME280;21993;42.672;23.296;2023-04-06T00:56:56;94429.38;;;3.11;58.17
35892;BME280;21993;42.672;23.296;2023-04-06T00:59:22;94422.63;;;3.08;58.63
35892;BME280;21993;42.672;23.296;2023-04-06T01:01:48;94428.72;;;2.95;58.90
35892;BME280;21993;42.672;23.296;2023-04-06T01:04:13;94434.53;;;2.84;59.11
35892;BME280;21993;42.672;23.296;2023-04-06T01:06:39;94429.13;;;3.01;59.08
35892;BME280;21993;42.672;23.296;2023-04-06T01:09:08;94424.53;;;3.19;58.66
35892;BME280;21993;42.672;23.296;2023-04-06T01:11:36;94432.56;;;3.29;58.41
35892;BME280;21993;42.672;23.296;2023-04-06T01:14:03;94423.53;;;3.34;57.63
35892;BME280;21993;42.672;23.296;2023-04-06T01:16:28;94422.78;;;3.20;57.62
35892;BME280;21993;42.672;23.296;2023-04-06T01:18:54;94423.78;;;3.17;58.25
35892;BME280;21993;42.672;23.296;2023-04-06T01:21:19;94416.13;;;3.16;57.96
35892;BME280;21993;42.672;23.296;2023-04-06T01:23:45;94416.84;;;3.18;58.77
35892;BME280;21993;42.672;23.296;2023-04-06T01:26:11;94416.47;;;3.24;58.59
35892;BME280;21993;42.672;23.296;2023-04-06T01:28:37;94411.00;;;3.28;58.78
35892;BME280;21993;42.672;23.296;2023-04-06T01:31:04;94413.59;;;3.41;58.15
35892;BME280;21993;42.672;23.296;2023-04-06T01:33:29;94405.00;;;3.41;57.62
35892;BME280;21993;42.672;23.296;2023-04-06T01:35:55;94408.94;;;3.46;57.71
35892;BME280;21993;42.672;23.296;2023-04-06T01:38:20;94405.81;;;3.41;58.13
35892;BME280;21993;42.672;23.296;2023-04-06T01:40:46;94412.38;;;3.47;57.71
35892;BME280;21993;42.672;23.296;2023-04-06T01:43:11;94416.25;;;3.54;57.37
35892;BME280;21993;42.672;23.296;2023-04-06T01:45:37;94407.38;;;3.44;57.42
35892;BME280;21993;42.672;23.296;2023-04-06T01:48:02;94404.88;;;3.29;58.52
35892;BME280;21993;42.672;23.296;2023-04-06T01:50:27;94403.22;;;3.28;58.34
35892;BME280;21993;42.672;23.296;2023-04-06T01:52:53;94403.13;;;3.43;58.01
35892;BME280;21993;42.672;23.296;2023-04-06T01:55:18;94394.00;;;3.50;58.23
35892;BME280;21993;42.672;23.296;2023-04-06T01:57:44;94389.53;;;3.52;58.15
35892;BME280;21993;42.672;23.296;2023-04-06T02:00:09;94390.78;;;3.46;57.66
35892;BME280;21993;42.672;23.296;2023-04-06T02:02:35;94397.25;;;3.53;57.55
35892;BME280;21993;42.672;23.296;2023-04-06T02:05:01;94388.28;;;3.45;58.14
35892;BME280;21993;42.672;23.296;2023-04-06T02:07:26;94392.44;;;3.47;57.43
35892;BME280;21993;42.672;23.296;2023-04-06T02:09:54;94392.41;;;3.34;58.26
35892;BME280;21993;42.672;23.296;2023-04-06T02:12:20;94393.34;;;3.33;58.85
35892;BME280;21993;42.672;23.296;2023-04-06T02:14:46;94395.16;;;3.46;57.65
35892;BME280;21993;42.672;23.296;2023-04-06T02:17:11;94387.97;;;3.49;58.25
35892;BME280;21993;42.672;23.296;2023-04-06T02:19:36;94382.25;;;3.31;58.06
35892;BME280;21993;42.672;23.296;2023-04-06T02:22:02;94393.56;;;3.30;58.60
35892;BME280;21993;42.672;23.296;2023-04-06T02:24:27;94386.88;;;3.26;57.95
35892;BME280;21993;42.672;23.296;2023-04-06T02:26:53;94392.34;;;3.49;57.77
35892;BME280;21993;42.672;23.296;2023-04-06T02:29:18;94385.19;;;3.52;58.04
35892;BME280;21993;42.672;23.296;2023-04-06T02:31:43;94397.00;;;3.44;57.62
35892;BME280;21993;42.672;23.296;2023-04-06T02:34:09;94382.25;;;3.44;57.68
35892;BME280;21993;42.672;23.296;2023-04-06T02:36:37;94388.97;;;3.34;57.72
35892;BME280;21993;42.672;23.296;2023-04-06T02:39:02;94389.97;;;3.19;58.56
35892;BME280;21993;42.672;23.296;2023-04-06T02:41:28;94396.06;;;3.45;58.48
35892;BME280;21993;42.672;23.296;2023-04-06T02:43:53;94390.38;;;3.52;58.38
35892;BME280;21993;42.672;23.296;2023-04-06T02:46:19;94392.34;;;3.49;58.49
35892;BME280;21993;42.672;23.296;2023-04-06T02:48:45;94391.00;;;3.56;58.15
35892;BME280;21993;42.672;23.296;2023-04-06T02:51:10;94391.13;;;3.54;58.14
35892;BME280;21993;42.672;23.296;2023-04-06T02:53:36;94375.56;;;3.54;58.30
35892;BME280;21993;42.672;23.296;2023-04-06T02:56:01;94391.00;;;3.56;57.97
35892;BME280;21993;42.672;23.296;2023-04-06T02:58:27;94388.81;;;3.50;58.31
35892;BME280;21993;42.672;23.296;2023-04-06T03:00:52;94387.06;;;3.50;57.64
35892;BME280;21993;42.672;23.296;2023-04-06T03:03:17;94386.25;;;3.62;58.15
35892;BME280;21993;42.672;23.296;2023-04-06T03:05:43;94387.56;;;3.43;57.84
35892;BME280;21993;42.672;23.296;2023-04-06T03:08:08;94381.13;;;3.48;58.42
35892;BME280;21993;42.672;23.296;2023-04-06T03:10:33;94388.94;;;3.61;58.13
35892;BME280;21993;42.672;23.296;2023-04-06T03:12:59;94400.88;;;3.63;57.36
35892;BME280;21993;42.672;23.296;2023-04-06T03:15:24;94391.13;;;3.67;57.42
35892;BME280;21993;42.672;23.296;2023-04-06T03:17:50;94395.81;;;3.75;57.19
35892;BME280;21993;42.672;23.296;2023-04-06T03:20:15;94387.28;;;3.73;57.20
35892;BME280;21993;42.672;23.296;2023-04-06T03:22:41;94394.53;;;3.67;57.70
35892;BME280;21993;42.672;23.296;2023-04-06T03:25:06;94388.59;;;3.53;57.98
35892;BME280;21993;42.672;23.296;2023-04-06T03:27:32;94387.69;;;3.66;58.11
35892;BME280;21993;42.672;23.296;2023-04-06T03:29:58;94387.09;;;3.63;57.65
35892;BME280;21993;42.672;23.296;2023-04-06T03:32:23;94379.47;;;3.60;58.19
35892;BME280;21993;42.672;23.296;2023-04-06T03:34:48;94379.28;;;3.63;57.56
35892;BME280;21993;42.672;23.296;2023-04-06T03:37:14;94382.28;;;3.70;58.04
35892;BME280;21993;42.672;23.296;2023-04-06T03:39:39;94382.09;;;3.73;57.08
35892;BME280;21993;42.672;23.296;2023-04-06T03:42:05;94390.81;;;3.72;56.98
35892;BME280;21993;42.672;23.296;2023-04-06T03:44:31;94380.94;;;3.64;57.83
35892;BME280;21993;42.672;23.296;2023-04-06T03:46:57;94382.72;;;3.63;57.93
35892;BME280;21993;42.672;23.296;2023-04-06T03:49:22;94375.53;;;3.67;57.34
35892;BME280;21993;42.672;23.296;2023-04-06T03:51:47;94368.47;;;3.69;57.14
35892;BME280;21993;42.672;23.296;2023-04-06T03:54:13;94383.56;;;3.64;57.54
35892;BME280;21993;42.672;23.296;2023-04-06T03:56:38;94379.38;;;3.61;57.94
35892;BME280;21993;42.672;23.296;2023-04-06T03:59:04;94377.72;;;3.60;57.81
35892;BME280;21993;42.672;23.296;2023-04-06T04:01:30;94385.69;;;3.45;57.78
35892;BME280;21993;42.672;23.296;2023-04-06T04:03:55;94386.13;;;3.51;57.73
35892;BME280;21993;42.672;23.296;2023-04-06T04:06:21;94383.22;;;3.56;57.94
35892;BME280;21993;42.672;23.296;2023-04-06T04:08:46;94386.88;;;3.66;58.03
35892;BME280;21993;42.672;23.296;2023-04-06T04:11:11;94376.28;;;3.69;58.07
35892;BME280;21993;42.672;23.296;2023-04-06T04:13:37;94390.69;;;3.60;57.67
35892;BME280;21993;42.672;23.296;2023-04-06T04:16:02;94383.34;;;3.67;57.24
35892;BME280;21993;42.672;23.296;2023-04-06T04:18:28;94382.81;;;3.75;56.93
35892;BME280;21993;42.672;23.296;2023-04-06T04:20:53;94383.97;;;3.83;56.56
35892;BME280;21993;42.672;23.296;2023-04-06T04:23:19;94380.63;;;3.68;57.97
35892;BME280;21993;42.672;23.296;2023-04-06T04:25:44;94381.47;;;3.69;57.87
35892;BME280;21993;42.672;23.296;2023-04-06T04:28:10;94380.13;;;3.76;57.30
35892;BME280;21993;42.672;23.296;2023-04-06T04:30:35;94380.66;;;3.81;57.60
35892;BME280;21993;42.672;23.296;2023-04-06T04:33:01;94380.75;;;3.92;57.21
35892;BME280;21993;42.672;23.296;2023-04-06T04:35:26;94392.47;;;3.85;57.01
35892;BME280;21993;42.672;23.296;2023-04-06T04:37:52;94379.59;;;3.84;57.08
35892;BME280;21993;42.672;23.296;2023-04-06T04:40:17;94384.81;;;3.84;57.56
35892;BME280;21993;42.672;23.296;2023-04-06T04:42:43;94391.53;;;3.86;57.04
35892;BME280;21993;42.672;23.296;2023-04-06T04:45:08;94385.13;;;3.79;56.78
35892;BME280;21993;42.672;23.296;2023-04-06T04:47:34;94385.03;;;3.81;56.71
35892;BME280;21993;42.672;23.296;2023-04-06T04:49:59;94378.56;;;3.74;57.34
35892;BME280;21993;42.672;23.296;2023-04-06T04:52:25;94384.28;;;3.79;57.75
35892;BME280;21993;42.672;23.296;2023-04-06T04:54:50;94379.94;;;3.79;57.74
35892;BME280;21993;42.672;23.296;2023-04-06T04:57:16;94376.28;;;3.82;56.81
35892;BME280;21993;42.672;23.296;2023-04-06T04:59:42;94386.28;;;3.88;56.67
35892;BME280;21993;42.672;23.296;2023-04-06T05:02:08;94377.22;;;3.93;57.13
35892;BME280;21993;42.672;23.296;2023-04-06T05:04:33;94394.56;;;3.93;57.60
35892;BME280;21993;42.672;23.296;2023-04-06T05:07:06;94380.44;;;3.97;56.67
35892;BME280;21993;42.672;23.296;2023-04-06T05:09:32;94390.63;;;4.00;57.69
35892;BME280;21993;42.672;23.296;2023-04-06T05:11:58;94376.69;;;4.01;57.05
35892;BME280;21993;42.672;23.296;2023-04-06T05:14:24;94367.88;;;4.04;57.12
35892;BME280;21993;42.672;23.296;2023-04-06T05:16:50;94379.94;;;4.05;56.64
35892;BME280;21993;42.672;23.296;2023-04-06T05:19:15;94379.59;;;4.09;57.66
35892;BME280;21993;42.672;23.296;2023-04-06T05:21:41;94376.69;;;4.14;56.86
35892;BME280;21993;42.672;23.296;2023-04-06T05:24:06;94375.47;;;4.07;57.24
35892;BME280;21993;42.672;23.296;2023-04-06T05:26:32;94381.06;;;4.13;56.92
35892;BME280;21993;42.672;23.296;2023-04-06T05:28:58;94369.22;;;4.09;57.47
35892;BME280;21993;42.672;23.296;2023-04-06T05:31:23;94379.72;;;4.20;57.57
35892;BME280;21993;42.672;23.296;2023-04-06T05:33:48;94376.06;;;4.23;57.68
35892;BME280;21993;42.672;23.296;2023-04-06T05:36:14;94381.97;;;4.38;57.97
35892;BME280;21993;42.672;23.296;2023-04-06T05:38:39;94374.38;;;4.47;56.37
35892;BME280;21993;42.672;23.296;2023-04-06T05:41:05;94371.66;;;4.49;57.17
35892;BME280;21993;42.672;23.296;2023-04-06T05:43:31;94369.88;;;4.49;57.53
35892;BME280;21993;42.672;23.296;2023-04-06T05:45:56;94371.13;;;4.44;57.44
35892;BME280;21993;42.672;23.296;2023-04-06T05:48:22;94367.06;;;4.52;56.43
35892;BME280;21993;42.672;23.296;2023-04-06T05:50:50;94380.22;;;4.62;57.14
35892;BME280;21993;42.672;23.296;2023-04-06T05:53:16;94372.53;;;4.61;56.93
35892;BME280;21993;42.672;23.296;2023-04-06T05:55:41;94376.06;;;4.72;56.99
35892;BME280;21993;42.672;23.296;2023-04-06T05:58:07;94368.09;;;4.63;56.46
35892;BME280;21993;42.672;23.296;2023-04-06T06:00:32;94364.38;;;4.54;57.00
35892;BME280;21993;42.672;23.296;2023-04-06T06:02:58;94356.59;;;4.54;57.36
35892;BME280;21993;42.672;23.296;2023-04-06T06:05:24;94352.50;;;4.63;57.14
35892;BME280;21993;42.672;23.296;2023-04-06T06:07:49;94357.78;;;4.61;56.59
35892;BME280;21993;42.672;23.296;2023-04-06T06:10:15;94353.81;;;4.68;57.50
35892;BME280;21993;42.672;23.296;2023-04-06T06:12:40;94368.22;;;4.48;57.10
35892;BME280;21993;42.672;23.296;2023-04-06T06:15:06;94369.00;;;4.38;57.97
35892;BME280;21993;42.672;23.296;2023-04-06T06:17:32;94356.47;;;4.56;58.00
35892;BME280;21993;42.672;23.296;2023-04-06T06:19:57;94353.09;;;4.66;57.71
35892;BME280;21993;42.672;23.296;2023-04-06T06:22:22;94363.72;;;4.63;57.90
35892;BME280;21993;42.672;23.296;2023-04-06T06:24:48;94366.88;;;4.56;57.59
35892;BME280;21993;42.672;23.296;2023-04-06T06:27:15;94365.69;;;4.60;57.63
35892;BME280;21993;42.672;23.296;2023-04-06T06:29:41;94357.47;;;4.66;58.86
35892;BME280;21993;42.672;23.296;2023-04-06T06:32:06;94356.59;;;4.78;58.00
35892;BME280;21993;42.672;23.296;2023-04-06T06:34:34;94366.72;;;4.94;57.27
35892;BME280;21993;42.672;23.296;2023-04-06T06:37:00;94365.06;;;4.93;56.74
35892;BME280;21993;42.672;23.296;2023-04-06T06:39:25;94365.41;;;4.88;57.16
35892;BME280;21993;42.672;23.296;2023-04-06T06:41:51;94364.63;;;4.99;56.52
35892;BME280;21993;42.672;23.296;2023-04-06T06:44:17;94362.84;;;4.99;56.81
35892;BME280;21993;42.672;23.296;2023-04-06T06:46:42;94362.56;;;5.15;57.09
35892;BME280;21993;42.672;23.296;2023-04-06T06:49:08;94370.31;;;5.28;56.49
35892;BME280;21993;42.672;23.296;2023-04-06T06:51:34;94364.97;;;5.29;56.46
35892;BME280;21993;42.672;23.296;2023-04-06T06:53:59;94361.50;;;5.42;55.39
35892;BME280;21993;42.672;23.296;2023-04-06T06:56:25;94356.66;;;5.48;56.06
35892;BME280;21993;42.672;23.296;2023-04-06T06:58:51;94368.75;;;5.49;56.05
35892;BME280;21993;42.672;23.296;2023-04-06T07:01:17;94361.31;;;5.56;56.30
35892;BME280;21993;42.672;23.296;2023-04-06T07:03:42;94360.94;;;5.60;55.88
35892;BME280;21993;42.672;23.296;2023-04-06T07:06:08;94359.69;;;5.66;55.91
35892;BME280;21993;42.672;23.296;2023-04-06T07:08:33;94354.59;;;5.76;55.58
35892;BME280;21993;42.672;23.296;2023-04-06T07:10:59;94359.56;;;5.79;55.20
35892;BME280;21993;42.672;23.296;2023-04-06T07:13:24;94353.66;;;5.88;55.48
35892;BME280;21993;42.672;23.296;2023-04-06T07:15:51;94355.84;;;5.94;54.86
35892;BME280;21993;42.672;23.296;2023-04-06T07:18:18;94358.78;;;5.89;54.81
35892;BME280;21993;42.672;23.296;2023-04-06T07:20:44;94355.88;;;5.70;54.43
35892;BME280;21993;42.672;23.296;2023-04-06T07:23:10;94356.00;;;5.69;54.53
35892;BME280;21993;42.672;23.296;2023-04-06T07:25:36;94360.00;;;5.61;54.93
35892;BME280;21993;42.672;23.296;2023-04-06T07:28:02;94358.97;;;5.64;54.28
35892;BME280;21993;42.672;23.296;2023-04-06T07:30:28;94356.38;;;5.75;54.35
35892;BME280;21993;42.672;23.296;2023-04-06T07:32:54;94357.53;;;5.71;54.46
35892;BME280;21993;42.672;23.296;2023-04-06T07:35:25;94361.00;;;5.83;54.80
35892;BME280;21993;42.672;23.296;2023-04-06T07:37:52;94365.84;;;5.87;54.71
35892;BME280;21993;42.672;23.296;2023-04-06T07:40:17;94350.16;;;6.00;54.01
35892;BME280;21993;42.672;23.296;2023-04-06T07:42:43;94347.81;;;6.08;54.39
35892;BME280;21993;42.672;23.296;2023-04-06T07:45:09;94348.63;;;6.20;53.81
35892;BME280;21993;42.672;23.296;2023-04-06T07:47:34;94334.44;;;6.24;54.22
35892;BME280;21993;42.672;23.296;2023-04-06T07:50:00;94347.81;;;6.42;53.66
35892;BME280;21993;42.672;23.296;2023-04-06T07:52:25;94345.28;;;6.63;53.70
35892;BME280;21993;42.672;23.296;2023-04-06T07:54:51;94341.88;;;6.51;54.25
35892;BME280;21993;42.672;23.296;2023-04-06T07:57:17;94345.88;;;6.66;54.08
35892;BME280;21993;42.672;23.296;2023-04-06T07:59:43;94347.16;;;6.83;53.39
35892;BME280;21993;42.672;23.296;2023-04-06T08:02:08;94339.28;;;6.94;53.47
35892;BME280;21993;42.672;23.296;2023-04-06T08:04:35;94337.03;;;7.01;53.12
35892;BME280;21993;42.672;23.296;2023-04-06T08:07:02;94334.25;;;7.14;53.08
35892;BME280;21993;42.672;23.296;2023-04-06T08:09:27;94330.88;;;7.23;52.48
35892;BME280;21993;42.672;23.296;2023-04-06T08:11:53;94337.34;;;7.40;52.53
35892;BME280;21993;42.672;23.296;2023-04-06T08:14:19;94340.69;;;7.30;51.67
35892;BME280;21993;42.672;23.296;2023-04-06T08:16:45;94333.34;;;7.56;50.97
35892;BME280;21993;42.672;23.296;2023-04-06T08:19:10;94335.25;;;7.54;51.42
35892;BME280;21993;42.672;23.296;2023-04-06T08:21:36;94342.25;;;7.54;51.72
35892;BME280;21993;42.672;23.296;2023-04-06T08:24:02;94345.06;;;7.62;50.34
35892;BME280;21993;42.672;23.296;2023-04-06T08:26:27;94349.16;;;7.55;51.00
35892;BME280;21993;42.672;23.296;2023-04-06T08:28:53;94349.09;;;7.66;50.49
35892;BME280;21993;42.672;23.296;2023-04-06T08:31:18;94348.78;;;7.80;50.34
35892;BME280;21993;42.672;23.296;2023-04-06T08:33:44;94354.19;;;7.88;50.30
35892;BME280;21993;42.672;23.296;2023-04-06T08:36:11;94351.69;;;8.08;50.13
35892;BME280;21993;42.672;23.296;2023-04-06T08:38:37;94346.72;;;8.05;48.60
35892;BME280;21993;42.672;23.296;2023-04-06T08:41:10;94350.88;;;8.07;48.26
35892;BME280;21993;42.672;23.296;2023-04-06T08:43:42;94352.22;;;8.02;48.69
35892;BME280;21993;42.672;23.296;2023-04-06T08:46:10;94343.59;;;8.11;47.73
35892;BME280;21993;42.672;23.296;2023-04-06T08:48:36;94349.50;;;8.13;47.44
35892;BME280;21993;42.672;23.296;2023-04-06T08:51:03;94353.34;;;8.09;47.17
35892;BME280;21993;42.672;23.296;2023-04-06T08:53:29;94351.81;;;8.06;47.60
35892;BME280;21993;42.672;23.296;2023-04-06T08:55:57;94355.16;;;8.08;47.68
35892;BME280;21993;42.672;23.296;2023-04-06T08:58:24;94343.06;;;8.17;47.07
35892;BME280;21993;42.672;23.296;2023-04-06T09:00:51;94348.56;;;8.35;47.56
35892;BME280;21993;42.672;23.296;2023-04-06T09:03:17;94351.59;;;8.40;47.63
35892;BME280;21993;42.672;23.296;2023-04-06T09:05:47;94345.47;;;8.51;46.31
35892;BME280;21993;42.672;23.296;2023-04-06T09:08:13;94335.56;;;8.64;46.39
35892;BME280;21993;42.672;23.296;2023-04-06T09:10:42;94340.78;;;8.54;46.50
35892;BME280;21993;42.672;23.296;2023-04-06T09:13:08;94344.06;;;8.46;47.02
35892;BME280;21993;42.672;23.296;2023-04-06T09:15:34;94344.69;;;8.69;46.09
35892;BME280;21993;42.672;23.296;2023-04-06T09:18:00;94329.63;;;8.52;46.94
35892;BME280;21993;42.672;23.296;2023-04-06T09:20:26;94344.22;;;8.55;46.70
35892;BME280;21993;42.672;23.296;2023-04-06T09:22:54;94334.34;;;8.58;46.83
35892;BME280;21993;42.672;23.296;2023-04-06T09:25:21;94338.91;;;8.35;46.94
35892;BME280;21993;42.672;23.296;2023-04-06T09:27:48;94341.03;;;8.41;46.73
35892;BME280;21993;42.672;23.296;2023-04-06T09:30:22;94338.41;;;8.41;47.70
35892;BME280;21993;42.672;23.296;2023-04-06T09:32:51;94338.00;;;8.46;47.23
35892;BME280;21993;42.672;23.296;2023-04-06T09:35:18;94341.06;;;8.51;46.37
35892;BME280;21993;42.672;23.296;2023-04-06T09:37:48;94335.41;;;8.56;45.64
35892;BME280;21993;42.672;23.296;2023-04-06T09:40:14;94337.22;;;8.65;45.59
35892;BME280;21993;42.672;23.296;2023-04-06T09:42:45;94334.38;;;8.68;45.97
35892;BME280;21993;42.672;23.296;2023-04-06T09:45:15;94332.28;;;8.62;45.63
35892;BME280;21993;42.672;23.296;2023-04-06T09:47:45;94341.75;;;8.53;46.16
35892;BME280;21993;42.672;23.296;2023-04-06T09:50:12;94331.13;;;8.55;45.91
35892;BME280;21993;42.672;23.296;2023-04-06T09:52:50;94337.31;;;8.44;46.04
35892;BME280;21993;42.672;23.296;2023-04-06T09:55:26;94330.75;;;8.59;46.35
35892;BME280;21993;42.672;23.296;2023-04-06T09:58:13;94339.63;;;8.78;45.74
35892;BME280;21993;42.672;23.296;2023-04-06T10:01:19;94327.19;;;8.60;45.69
35892;BME280;21993;42.672;23.296;2023-04-06T10:06:27;94328.03;;;8.70;45.40
35892;BME280;21993;42.672;23.296;2023-04-06T10:08:55;94323.28;;;8.55;44.37
35892;BME280;21993;42.672;23.296;2023-04-06T10:11:22;94331.09;;;8.76;44.50
35892;BME280;21993;42.672;23.296;2023-04-06T10:13:48;94329.28;;;8.76;44.61
35892;BME280;21993;42.672;23.296;2023-04-06T10:16:15;94331.91;;;8.76;44.97
35892;BME280;21993;42.672;23.296;2023-04-06T10:18:44;94338.50;;;8.70;43.86
35892;BME280;21993;42.672;23.296;2023-04-06T10:21:16;94327.06;;;8.71;44.14
35892;BME280;21993;42.672;23.296;2023-04-06T10:24:07;94312.44;;;8.59;44.25
35892;BME280;21993;42.672;23.296;2023-04-06T10:26:35;94311.72;;;8.57;45.61
35892;BME280;21993;42.672;23.296;2023-04-06T10:29:04;94324.13;;;8.55;44.62
35892;BME280;21993;42.672;23.296;2023-04-06T10:31:30;94315.78;;;8.81;44.80
35892;BME280;21993;42.672;23.296;2023-04-06T10:34:00;94317.19;;;8.85;43.75
35892;BME280;21993;42.672;23.296;2023-04-06T10:36:36;94315.25;;;8.87;44.71
35892;BME280;21993;42.672;23.296;2023-04-06T10:39:04;94313.44;;;8.78;44.90
35892;BME280;21993;42.672;23.296;2023-04-06T10:41:34;94310.03;;;8.87;45.62
35892;BME280;21993;42.672;23.296;2023-04-06T10:44:00;94304.09;;;8.94;44.73
35892;BME280;21993;42.672;23.296;2023-04-06T10:46:30;94308.53;;;9.03;44.11
35892;BME280;21993;42.672;23.296;2023-04-06T10:48:57;94313.47;;;9.07;44.14
35892;BME280;21993;42.672;23.296;2023-04-06T10:51:27;94307.56;;;9.24;43.99
35892;BME280;21993;42.672;23.296;2023-04-06T10:53:54;94309.34;;;9.04;44.36
35892;BME280;21993;42.672;23.296;2023-04-06T10:56:24;94305.38;;;9.29;44.31
35892;BME280;21993;42.672;23.296;2023-04-06T10:58:54;94299.72;;;9.14;44.12
35892;BME280;21993;42.672;23.296;2023-04-06T11:01:22;94304.25;;;9.22;44.18
35892;BME280;21993;42.672;23.296;2023-04-06T11:03:51;94296.69;;;9.09;44.18
35892;BME280;21993;42.672;23.296;2023-04-06T11:06:21;94301.22;;;8.97;43.97
35892;BME280;21993;42.672;23.296;2023-04-06T11:08:47;94292.81;;;9.13;43.49
35892;BME280;21993;42.672;23.296;2023-04-06T11:11:14;94288.41;;;9.14;44.04
35892;BME280;21993;42.672;23.296;2023-04-06T11:13:42;94283.06;;;9.25;43.95
35892;BME280;21993;42.672;23.296;2023-04-06T11:16:23;94287.44;;;9.24;43.59
35892;BME280;21993;42.672;23.296;2023-04-06T11:18:49;94278.22;;;9.20;43.37
35892;BME280;21993;42.672;23.296;2023-04-06T11:21:15;94278.22;;;9.20;43.94
35892;BME280;21993;42.672;23.296;2023-04-06T11:23:40;94277.94;;;9.23;44.67
35892;BME280;21993;42.672;23.296;2023-04-06T11:26:10;94274.50;;;9.42;43.34
35892;BME280;21993;42.672;23.296;2023-04-06T11:28:36;94266.09;;;9.29;43.93
35892;BME280;21993;42.672;23.296;2023-04-06T11:31:02;94268.56;;;9.40;44.05
35892;BME280;21993;42.672;23.296;2023-04-06T11:33:27;94270.91;;;9.53;43.85
35892;BME280;21993;42.672;23.296;2023-04-06T11:35:57;94274.34;;;9.53;43.19
35892;BME280;21993;42.672;23.296;2023-04-06T11:38:22;94273.78;;;9.40;42.89
35892;BME280;21993;42.672;23.296;2023-04-06T11:40:53;94256.88;;;9.25;43.34
35892;BME280;21993;42.672;23.296;2023-04-06T11:43:28;94268.44;;;9.13;43.84
35892;BME280;21993;42.672;23.296;2023-04-06T11:46:00;94261.97;;;9.26;43.49
35892;BME280;21993;42.672;23.296;2023-04-06T11:48:27;94262.50;;;9.30;43.52
35892;BME280;21993;42.672;23.296;2023-04-06T11:50:59;94262.38;;;9.12;44.13
35892;BME280;21993;42.672;23.296;2023-04-06T11:53:27;94255.75;;;9.27;44.38
35892;BME280;21993;42.672;23.296;2023-04-06T11:55:53;94257.81;;;9.43;44.51
35892;BME280;21993;42.672;23.296;2023-04-06T11:58:19;94252.44;;;9.16;44.08
35892;BME280;21993;42.672;23.296;2023-04-06T12:00:44;94259.50;;;9.25;44.04
35892;BME280;21993;42.672;23.296;2023-04-06T12:03:14;94249.13;;;9.04;43.84
35892;BME280;21993;42.672;23.296;2023-04-06T12:05:40;94255.88;;;9.16;43.82
35892;BME280;21993;42.672;23.296;2023-04-06T12:08:05;94258.91;;;9.21;43.15
35892;BME280;21993;42.672;23.296;2023-04-06T12:10:31;94261.84;;;9.09;42.97
35892;BME280;21993;42.672;23.296;2023-04-06T12:12:56;94248.75;;;9.09;43.55
35892;BME280;21993;42.672;23.296;2023-04-06T12:15:24;94257.13;;;9.02;43.52
35892;BME280;21993;42.672;23.296;2023-04-06T12:17:49;94260.56;;;9.13;43.19
35892;BME280;21993;42.672;23.296;2023-04-06T12:20:15;94246.66;;;9.12;43.61
35892;BME280;21993;42.672;23.296;2023-04-06T12:22:40;94243.47;;;8.80;43.80
35892;BME280;21993;42.672;23.296;2023-04-06T12:25:06;94254.78;;;8.90;44.59
35892;BME280;21993;42.672;23.296;2023-04-06T12:27:32;94241.69;;;8.90;44.93
35892;BME280;21993;42.672;23.296;2023-04-06T12:29:58;94245.41;;;9.07;44.04
35892;BME280;21993;42.672;23.296;2023-04-06T12:32:24;94244.31;;;8.99;44.54
35892;BME280;21993;42.672;23.296;2023-04-06T12:34:52;94255.06;;;8.87;44.28
35892;BME280;21993;42.672;23.296;2023-04-06T12:37:17;94233.59;;;8.83;44.68
35892;BME280;21993;42.672;23.296;2023-04-06T12:39:43;94240.88;;;8.89;44.69
35892;BME280;21993;42.672;23.296;2023-04-06T12:42:10;94236.19;;;8.83;43.71
35892;BME280;21993;42.672;23.296;2023-04-06T12:44:35;94240.03;;;8.89;43.70
35892;BME280;21993;42.672;23.296;2023-04-06T12:47:01;94234.81;;;8.89;44.38
35892;BME280;21993;42.672;23.296;2023-04-06T12:49:27;94230.81;;;8.75;44.08
35892;BME280;21993;42.672;23.296;2023-04-06T12:51:53;94227.38;;;8.74;44.05
35892;BME280;21993;42.672;23.296;2023-04-06T12:54:18;94226.56;;;8.84;43.54
35892;BME280;21993;42.672;23.296;2023-04-06T12:56:45;94228.75;;;8.79;44.28
35892;BME280;21993;42.672;23.296;2023-04-06T12:59:10;94227.09;;;8.87;43.54